createdAt,value
2023-04-26T00:01:18.477Z,54.50
2023-04-26T00:02:51.909Z,54.50
2023-04-26T00:04:24.904Z,54.50
2023-04-26T00:05:58.273Z,54.60
2023-04-26T00:07:31.770Z,54.70
2023-04-26T00:09:05.739Z,54.70
2023-04-26T00:10:38.438Z,54.70
2023-04-26T00:12:11.821Z,54.70
2023-04-26T00:13:46.544Z,54.60
2023-04-26T00:15:19.688Z,54.50
2023-04-26T00:16:53.213Z,54.40
2023-04-26T00:18:26.325Z,54.40
2023-04-26T00:19:59.666Z,54.40
2023-04-26T00:21:31.840Z,54.30
2023-04-26T00:23:04.996Z,54.30
2023-04-26T00:24:37.810Z,54.40
2023-04-26T00:26:10.974Z,54.40
2023-04-26T00:27:44.099Z,54.40
2023-04-26T00:29:18.707Z,54.50
2023-04-26T00:30:51.876Z,54.50
2023-04-26T00:32:24.259Z,54.50
2023-04-26T00:33:57.657Z,54.40
2023-04-26T00:35:31.481Z,54.50
2023-04-26T00:37:06.275Z,54.60
2023-04-26T00:38:39.456Z,54.70
2023-04-26T00:40:16.107Z,55.00
2023-04-26T00:41:49.804Z,54.70
2023-04-26T00:43:22.941Z,54.70
2023-04-26T00:44:57.705Z,54.70
2023-04-26T00:46:31.409Z,54.80
2023-04-26T00:48:05.348Z,54.90
2023-04-26T00:49:37.583Z,54.90
2023-04-26T00:51:11.374Z,55.00
2023-04-26T00:52:46.618Z,55.10
2023-04-26T00:54:21.465Z,55.10
2023-04-26T00:55:55.262Z,55.20
2023-04-26T00:57:27.469Z,55.20
2023-04-26T00:59:01.942Z,55.30
2023-04-26T01:00:36.703Z,55.40
2023-04-26T01:02:09.459Z,55.40
2023-04-26T01:03:44.388Z,55.40
2023-04-26T01:05:18.454Z,55.50
2023-04-26T01:06:51.812Z,55.50
2023-04-26T01:08:25.618Z,55.50
2023-04-26T01:10:01.092Z,55.50
2023-04-26T01:11:36.922Z,56.10
2023-04-26T01:13:10.479Z,55.40
2023-04-26T01:14:45.061Z,55.30
2023-04-26T01:16:21.799Z,55.40
2023-04-26T01:17:55.202Z,55.50
2023-04-26T01:19:29.414Z,55.50
2023-04-26T01:21:04.591Z,55.50
2023-04-26T01:22:39.185Z,55.40
2023-04-26T01:24:12.957Z,55.50
2023-04-26T01:25:46.415Z,55.60
2023-04-26T01:27:19.933Z,55.60
2023-04-26T01:28:54.240Z,55.60
2023-04-26T01:30:27.941Z,55.60
2023-04-26T01:32:00.324Z,55.50
2023-04-26T01:33:34.905Z,55.50
2023-04-26T01:35:08.642Z,55.60
2023-04-26T01:36:41.394Z,55.70
2023-04-26T01:38:17.751Z,55.80
2023-04-26T01:39:50.893Z,55.80
2023-04-26T01:41:25.396Z,55.70
2023-04-26T01:42:58.757Z,55.80
2023-04-26T01:44:34.855Z,55.70
2023-04-26T01:46:08.084Z,55.70
2023-04-26T01:47:40.300Z,55.80
2023-04-26T01:49:13.608Z,55.90
2023-04-26T01:50:46.748Z,56.00
2023-04-26T01:52:19.978Z,56.00
2023-04-26T01:53:53.562Z,56.00
2023-04-26T01:55:26.706Z,56.00
2023-04-26T01:57:00.102Z,55.90
2023-04-26T01:58:33.294Z,55.90
2023-04-26T02:00:08.838Z,55.90
2023-04-26T02:01:48.077Z,56.00
2023-04-26T02:03:21.621Z,55.90
2023-04-26T02:04:56.912Z,55.90
2023-04-26T02:06:32.228Z,55.90
2023-04-26T02:08:06.073Z,55.90
2023-04-26T02:09:40.969Z,55.90
2023-04-26T02:11:15.126Z,55.90
2023-04-26T02:12:48.331Z,55.90
2023-04-26T02:14:20.548Z,55.80
2023-04-26T02:15:56.504Z,55.80
2023-04-26T02:17:30.924Z,55.90
2023-04-26T02:19:05.196Z,56.50
2023-04-26T02:20:38.571Z,55.80
2023-04-26T02:22:11.960Z,55.80
2023-04-26T02:23:47.020Z,55.80
2023-04-26T02:25:21.873Z,55.80
2023-04-26T02:26:55.322Z,55.80
2023-04-26T02:28:28.806Z,55.80
2023-04-26T02:30:02.338Z,55.80
2023-04-26T02:31:35.949Z,55.70
2023-04-26T02:33:10.490Z,55.80
2023-04-26T02:34:45.006Z,56.00
2023-04-26T02:36:18.134Z,56.10
2023-04-26T02:37:52.260Z,56.10
2023-04-26T02:39:26.017Z,56.10
2023-04-26T02:41:01.903Z,56.10
2023-04-26T02:42:35.240Z,56.70
2023-04-26T02:44:08.913Z,56.10
2023-04-26T02:45:43.818Z,56.20
2023-04-26T02:47:18.968Z,56.20
2023-04-26T02:48:52.291Z,56.30
2023-04-26T02:50:25.915Z,56.40
2023-04-26T02:51:59.017Z,56.40
2023-04-26T02:53:31.476Z,56.40
2023-04-26T02:55:05.639Z,56.40
2023-04-26T02:56:39.184Z,56.40
2023-04-26T02:58:12.490Z,56.40
2023-04-26T02:59:45.871Z,56.30
2023-04-26T03:01:19.300Z,56.30
2023-04-26T03:02:53.319Z,56.30
2023-04-26T03:04:25.654Z,56.30
2023-04-26T03:05:59.069Z,56.40
2023-04-26T03:07:32.948Z,56.40
2023-04-26T03:09:05.927Z,56.40
2023-04-26T03:10:39.704Z,56.50
2023-04-26T03:12:14.418Z,56.50
2023-04-26T03:13:47.864Z,56.50
2023-04-26T03:15:21.059Z,56.50
2023-04-26T03:16:55.103Z,56.60
2023-04-26T03:18:28.321Z,56.50
2023-04-26T03:20:02.875Z,56.50
2023-04-26T03:21:35.727Z,56.50
2023-04-26T03:23:09.251Z,56.50
2023-04-26T03:24:43.030Z,56.50
2023-04-26T03:26:16.964Z,56.50
2023-04-26T03:27:51.514Z,56.50
2023-04-26T03:29:24.846Z,56.40
2023-04-26T03:30:58.145Z,57.00
2023-04-26T03:32:31.768Z,56.30
2023-04-26T03:34:04.974Z,56.40
2023-04-26T03:35:38.602Z,56.40
2023-04-26T03:37:11.933Z,56.40
2023-04-26T03:38:44.477Z,56.70
2023-04-26T03:40:19.140Z,56.30
2023-04-26T03:41:52.410Z,56.40
2023-04-26T03:43:27.014Z,56.40
2023-04-26T03:45:00.424Z,56.40
2023-04-26T03:46:32.822Z,56.40
2023-04-26T03:48:07.074Z,56.50
2023-04-26T03:49:40.333Z,56.60
2023-04-26T03:51:13.773Z,56.50
2023-04-26T03:52:46.128Z,56.50
2023-04-26T03:54:19.257Z,56.50
2023-04-26T03:55:52.438Z,56.60
2023-04-26T03:57:25.623Z,56.60
2023-04-26T03:59:00.215Z,56.50
2023-04-26T04:00:33.880Z,56.60
2023-04-26T04:02:08.421Z,56.50
2023-04-26T04:03:41.558Z,56.60
2023-04-26T04:05:15.563Z,56.50
2023-04-26T04:06:48.855Z,56.50
2023-04-26T04:08:22.324Z,56.50
2023-04-26T04:09:55.711Z,56.60
2023-04-26T04:11:28.844Z,56.60
2023-04-26T04:13:02.929Z,56.60
2023-04-26T04:14:37.916Z,56.60
2023-04-26T04:16:12.930Z,56.70
2023-04-26T04:17:47.222Z,56.60
2023-04-26T04:19:21.134Z,56.60
2023-04-26T04:20:54.668Z,56.60
2023-04-26T04:22:27.836Z,56.60
2023-04-26T04:24:01.203Z,56.70
2023-04-26T04:25:33.638Z,56.60
2023-04-26T04:27:10.544Z,56.70
2023-04-26T04:28:47.050Z,56.80
2023-04-26T04:30:22.504Z,56.90
2023-04-26T04:31:55.836Z,57.00
2023-04-26T04:33:29.631Z,57.00
2023-04-26T04:35:05.210Z,57.10
2023-04-26T04:36:38.907Z,57.10
2023-04-26T04:38:12.190Z,57.00
2023-04-26T04:39:45.725Z,57.20
2023-04-26T04:41:20.225Z,57.20
2023-04-26T04:42:53.495Z,57.20
2023-04-26T04:44:30.573Z,57.30
2023-04-26T04:46:05.353Z,57.30
2023-04-26T04:47:39.596Z,57.30
2023-04-26T04:49:13.765Z,57.30
2023-04-26T04:50:46.912Z,57.30
2023-04-26T04:52:21.380Z,57.40
2023-04-26T04:53:55.180Z,57.50
2023-04-26T04:55:28.567Z,57.40
2023-04-26T04:57:02.825Z,57.40
2023-04-26T04:58:37.127Z,57.40
2023-04-26T05:00:12.546Z,57.40
2023-04-26T05:01:53.221Z,57.50
2023-04-26T05:03:26.756Z,57.50
2023-04-26T05:04:59.411Z,57.50
2023-04-26T05:06:33.095Z,57.50
2023-04-26T05:08:07.592Z,57.60
2023-04-26T05:09:40.850Z,57.60
2023-04-26T05:11:14.298Z,57.60
2023-04-26T05:12:47.606Z,57.60
2023-04-26T05:14:20.844Z,57.70
2023-04-26T05:15:54.136Z,57.70
2023-04-26T05:17:30.774Z,57.70
2023-04-26T05:19:05.342Z,57.70
2023-04-26T05:20:40.295Z,57.70
2023-04-26T05:22:17.990Z,57.70
2023-04-26T05:23:52.725Z,57.80
2023-04-26T05:25:26.201Z,57.80
2023-04-26T05:27:09.844Z,57.90
2023-04-26T05:28:57.446Z,58.00
2023-04-26T05:30:36.660Z,58.00
2023-04-26T05:32:31.795Z,58.10
2023-04-26T05:34:21.812Z,58.10
2023-04-26T05:36:00.424Z,58.10
2023-04-26T05:37:50.885Z,58.10
2023-04-26T05:39:28.335Z,58.20
2023-04-26T05:41:01.753Z,58.20
2023-04-26T05:42:35.380Z,58.30
2023-04-26T05:44:08.712Z,58.30
2023-04-26T05:45:42.177Z,58.40
2023-04-26T05:47:15.413Z,58.60
2023-04-26T05:48:50.445Z,58.60
2023-04-26T05:50:23.908Z,58.80
2023-04-26T05:51:57.079Z,58.80
2023-04-26T05:53:30.306Z,58.90
2023-04-26T05:55:05.775Z,59.10
2023-04-26T05:56:38.962Z,59.40
2023-04-26T05:58:12.909Z,59.60
2023-04-26T05:59:47.711Z,59.70
2023-04-26T06:01:21.005Z,59.90
2023-04-26T06:02:54.391Z,59.90
2023-04-26T06:04:29.138Z,60.00
2023-04-26T06:06:16.571Z,60.20
2023-04-26T06:07:49.694Z,60.30
2023-04-26T06:09:24.651Z,60.40
2023-04-26T06:10:57.789Z,60.30
2023-04-26T06:12:31.447Z,60.40
2023-04-26T06:14:05.396Z,60.50
2023-04-26T06:15:38.584Z,60.60
2023-04-26T06:17:11.900Z,60.60
2023-04-26T06:18:45.216Z,61.50
2023-04-26T06:20:20.464Z,60.70
2023-04-26T06:21:55.181Z,60.90
2023-04-26T06:23:28.372Z,61.00
2023-04-26T06:25:01.732Z,61.00
2023-04-26T06:26:34.975Z,61.10
2023-04-26T06:28:08.197Z,61.10
2023-04-26T06:29:41.556Z,61.00
2023-04-26T06:31:14.940Z,61.00
2023-04-26T06:32:48.431Z,61.00
2023-04-26T06:34:21.741Z,61.00
2023-04-26T06:35:56.526Z,61.20
2023-04-26T06:37:30.505Z,61.30
2023-04-26T06:39:04.023Z,61.50
2023-04-26T06:40:37.825Z,61.40
2023-04-26T06:42:11.436Z,61.30
2023-04-26T06:44:13.039Z,61.20
2023-04-26T06:45:50.453Z,61.20
2023-04-26T06:47:27.627Z,61.00
2023-04-26T06:49:02.789Z,60.90
2023-04-26T06:50:39.843Z,61.10
2023-04-26T06:52:14.566Z,61.20
2023-04-26T06:53:50.529Z,61.10
2023-04-26T06:55:24.651Z,60.90
2023-04-26T06:56:59.460Z,60.90
2023-04-26T06:58:34.461Z,60.80
2023-04-26T07:00:10.601Z,61.00
2023-04-26T07:01:43.801Z,61.20
2023-04-26T07:03:17.279Z,61.40
2023-04-26T07:04:50.975Z,61.20
2023-04-26T07:06:25.583Z,61.00
2023-04-26T07:08:00.061Z,61.30
2023-04-26T07:09:33.592Z,61.20
2023-04-26T07:11:11.285Z,61.10
2023-04-26T07:12:44.848Z,60.90
2023-04-26T07:14:18.898Z,60.80
2023-04-26T07:15:52.675Z,60.80
2023-04-26T07:17:25.805Z,60.70
2023-04-26T07:18:59.036Z,60.60
2023-04-26T07:20:32.160Z,60.40
2023-04-26T07:22:05.441Z,60.30
2023-04-26T07:23:39.921Z,59.90
2023-04-26T07:25:21.205Z,59.80
2023-04-26T07:26:54.506Z,59.70
2023-04-26T07:28:27.897Z,59.70
2023-04-26T07:30:01.024Z,59.30
2023-04-26T07:31:34.252Z,59.10
2023-04-26T07:33:07.907Z,58.90
2023-04-26T07:34:41.781Z,58.40
2023-04-26T07:36:14.910Z,58.20
2023-04-26T07:37:48.380Z,58.00
2023-04-26T07:39:22.921Z,57.80
2023-04-26T07:40:57.520Z,57.50
2023-04-26T07:42:30.708Z,57.10
2023-04-26T07:44:04.481Z,57.00
2023-04-26T07:45:37.660Z,56.70
2023-04-26T07:47:14.947Z,56.30
2023-04-26T07:48:48.403Z,56.20
2023-04-26T07:50:21.974Z,56.10
2023-04-26T07:51:56.421Z,56.20
2023-04-26T07:53:29.585Z,56.20
2023-04-26T07:55:04.106Z,56.00
2023-04-26T07:56:37.387Z,55.80
2023-04-26T07:58:14.410Z,55.80
2023-04-26T07:59:47.777Z,55.60
2023-04-26T08:01:20.991Z,55.50
2023-04-26T08:02:54.493Z,55.50
2023-04-26T08:04:35.389Z,55.40
2023-04-26T08:06:09.728Z,54.90
2023-04-26T08:07:43.676Z,54.40
2023-04-26T08:09:17.222Z,53.30
2023-04-26T08:10:51.665Z,52.90
2023-04-26T08:12:25.240Z,52.60
2023-04-26T08:13:58.585Z,52.50
2023-04-26T08:15:32.687Z,52.10
2023-04-26T08:17:06.741Z,51.80
2023-04-26T08:18:40.172Z,51.50
2023-04-26T08:20:14.133Z,51.30
2023-04-26T08:21:47.330Z,51.10
2023-04-26T08:23:20.473Z,51.10
2023-04-26T08:24:56.788Z,50.90
2023-04-26T08:26:31.537Z,50.70
2023-04-26T08:28:04.963Z,50.70
2023-04-26T08:29:38.158Z,50.80
2023-04-26T08:31:11.372Z,51.30
2023-04-26T08:32:45.503Z,50.50
2023-04-26T08:34:18.669Z,50.30
2023-04-26T08:35:52.006Z,50.10
2023-04-26T08:37:26.466Z,49.90
2023-04-26T08:39:00.099Z,49.50
2023-04-26T08:40:33.829Z,49.30
2023-04-26T08:42:16.107Z,49.50
2023-04-26T08:43:50.991Z,49.50
2023-04-26T08:45:25.797Z,49.80
2023-04-26T08:47:07.755Z,49.70
2023-04-26T08:48:41.891Z,49.20
2023-04-26T08:50:17.414Z,49.20
2023-04-26T08:51:52.623Z,49.20
2023-04-26T08:53:26.444Z,49.60
2023-04-26T08:55:01.406Z,49.70
2023-04-26T08:56:36.256Z,49.70
2023-04-26T08:58:12.872Z,49.60
2023-04-26T08:59:46.455Z,49.20
2023-04-26T09:01:21.928Z,48.80
2023-04-26T09:02:55.571Z,48.60
2023-04-26T09:04:33.272Z,48.60
2023-04-26T09:06:08.749Z,48.70
2023-04-26T09:07:47.238Z,48.60
2023-04-26T09:09:22.531Z,48.10
2023-04-26T09:10:55.888Z,48.20
2023-04-26T09:12:29.496Z,48.20
2023-04-26T09:14:03.969Z,47.90
2023-04-26T09:15:37.290Z,47.50
2023-04-26T09:17:26.361Z,47.20
2023-04-26T09:18:59.523Z,46.60
2023-04-26T09:20:32.717Z,47.20
2023-04-26T09:22:06.253Z,46.80
2023-04-26T09:23:58.977Z,46.50
2023-04-26T09:25:33.384Z,45.70
2023-04-26T09:27:06.978Z,46.10
2023-04-26T09:28:40.123Z,46.10
2023-04-26T09:30:18.304Z,46.00
2023-04-26T09:31:51.629Z,45.70
2023-04-26T09:33:24.966Z,45.70
2023-04-26T09:34:58.150Z,45.70
2023-04-26T09:36:32.385Z,45.70
2023-04-26T09:38:12.333Z,45.50
2023-04-26T09:39:46.025Z,45.50
2023-04-26T09:41:19.211Z,45.60
2023-04-26T09:43:01.116Z,45.50
2023-04-26T09:44:34.664Z,45.10
2023-04-26T09:46:09.468Z,45.40
2023-04-26T09:47:42.894Z,45.20
2023-04-26T09:49:16.026Z,45.10
2023-04-26T09:50:52.185Z,45.50
2023-04-26T09:52:25.566Z,45.20
2023-04-26T09:53:58.792Z,45.00
2023-04-26T09:55:35.326Z,44.50
2023-04-26T09:57:09.185Z,44.80
2023-04-26T09:59:01.067Z,44.20
2023-04-26T10:00:35.787Z,43.50
2023-04-26T10:02:17.129Z,44.10
2023-04-26T10:03:51.137Z,43.90
2023-04-26T10:05:24.907Z,43.80
2023-04-26T10:06:58.951Z,43.70
2023-04-26T10:08:33.463Z,43.50
2023-04-26T10:10:08.801Z,43.40
2023-04-26T10:11:42.322Z,43.50
2023-04-26T10:13:17.431Z,43.30
2023-04-26T10:14:50.700Z,43.00
2023-04-26T10:16:25.165Z,43.00
2023-04-26T10:17:59.800Z,42.80
2023-04-26T10:19:35.871Z,42.50
2023-04-26T10:21:14.761Z,42.50
2023-04-26T10:22:54.925Z,42.60
2023-04-26T10:24:29.246Z,42.60
2023-04-26T10:26:02.512Z,42.40
2023-04-26T10:27:52.722Z,42.20
2023-04-26T10:29:28.302Z,41.40
2023-04-26T10:31:02.014Z,42.10
2023-04-26T10:33:16.450Z,41.80
2023-04-26T10:35:12.123Z,41.70
2023-04-26T10:37:11.290Z,41.20
2023-04-26T10:39:21.742Z,41.50
2023-04-26T10:40:55.694Z,41.60
2023-04-26T10:42:32.071Z,41.80
2023-04-26T10:44:41.148Z,41.60
2023-04-26T10:46:37.858Z,41.40
2023-04-26T10:48:18.862Z,41.60
2023-04-26T10:49:52.392Z,41.60
2023-04-26T10:51:27.158Z,41.60
2023-04-26T10:53:07.231Z,41.50
2023-04-26T10:54:55.734Z,40.80
2023-04-26T10:56:54.356Z,40.40
2023-04-26T10:58:28.822Z,40.40
2023-04-26T11:00:30.763Z,40.80
2023-04-26T11:02:05.141Z,40.30
2023-04-26T11:03:39.155Z,41.00
2023-04-26T11:05:35.657Z,41.00
2023-04-26T11:07:10.175Z,40.50
2023-04-26T11:08:43.450Z,41.10
2023-04-26T11:10:23.314Z,41.10
2023-04-26T11:11:56.581Z,40.80
2023-04-26T11:13:32.397Z,40.80
2023-04-26T11:15:07.165Z,40.60
2023-04-26T11:16:41.779Z,40.60
2023-04-26T11:18:15.001Z,40.70
2023-04-26T11:19:48.588Z,40.60
2023-04-26T11:21:23.028Z,40.60
2023-04-26T11:22:57.670Z,40.80
2023-04-26T11:24:33.209Z,41.00
2023-04-26T11:26:08.906Z,40.70
2023-04-26T11:27:44.430Z,40.50
2023-04-26T11:29:20.279Z,40.10
2023-04-26T11:30:54.076Z,39.70
2023-04-26T11:32:28.337Z,39.90
2023-04-26T11:34:05.331Z,39.60
2023-04-26T11:35:40.452Z,40.00
2023-04-26T11:37:13.707Z,39.50
2023-04-26T11:38:48.617Z,39.60
2023-04-26T11:40:22.269Z,39.50
2023-04-26T11:42:07.020Z,39.70
2023-04-26T11:43:41.943Z,39.40
2023-04-26T11:45:17.474Z,39.40
2023-04-26T11:46:51.458Z,39.40
2023-04-26T11:48:25.999Z,39.40
2023-04-26T11:49:59.502Z,39.40
2023-04-26T11:51:33.822Z,39.40
2023-04-26T11:53:09.756Z,39.50
2023-04-26T11:54:44.851Z,39.60
2023-04-26T11:56:19.170Z,39.60
2023-04-26T11:57:52.454Z,40.00
2023-04-26T11:59:26.093Z,39.90
2023-04-26T12:01:01.764Z,39.80
2023-04-26T12:02:37.146Z,39.60
2023-04-26T12:04:11.501Z,39.50
2023-04-26T12:05:55.996Z,39.50
2023-04-26T12:07:37.123Z,39.50
2023-04-26T12:09:11.240Z,39.20
2023-04-26T12:10:48.456Z,39.20
2023-04-26T12:12:25.152Z,38.60
2023-04-26T12:14:00.485Z,38.50
2023-04-26T12:15:35.008Z,38.90
2023-04-26T12:17:10.282Z,38.80
2023-04-26T12:18:51.611Z,38.80
2023-04-26T12:20:32.641Z,39.00
2023-04-26T12:22:09.176Z,38.80
2023-04-26T12:23:42.320Z,39.00
2023-04-26T12:25:15.631Z,39.00
2023-04-26T12:26:50.268Z,38.90
2023-04-26T12:28:24.748Z,38.70
2023-04-26T12:29:58.091Z,38.70
2023-04-26T12:31:31.617Z,38.70
2023-04-26T12:33:16.328Z,38.60
2023-04-26T12:34:50.142Z,38.70
2023-04-26T12:36:23.260Z,38.80
2023-04-26T12:37:56.974Z,38.80
2023-04-26T12:39:30.698Z,38.70
2023-04-26T12:41:03.960Z,38.50
2023-04-26T12:42:38.950Z,38.60
2023-04-26T12:44:14.310Z,38.20
2023-04-26T12:45:47.586Z,38.10
2023-04-26T12:47:21.267Z,38.70
2023-04-26T12:48:55.028Z,38.20
2023-04-26T12:50:28.817Z,38.00
2023-04-26T12:52:01.977Z,38.00
2023-04-26T12:53:35.233Z,38.00
2023-04-26T12:55:17.299Z,37.90
2023-04-26T12:57:08.429Z,37.90
2023-04-26T12:58:42.988Z,37.90
2023-04-26T13:00:18.500Z,38.00
2023-04-26T13:01:51.644Z,37.70
2023-04-26T13:03:25.108Z,37.70
2023-04-26T13:04:58.871Z,37.40
2023-04-26T13:06:32.462Z,37.30
2023-04-26T13:08:05.840Z,37.40
2023-04-26T13:09:39.123Z,37.30
2023-04-26T13:11:12.270Z,37.20
2023-04-26T13:12:45.632Z,37.30
2023-04-26T13:14:20.078Z,37.40
2023-04-26T13:15:53.732Z,37.30
2023-04-26T13:17:27.571Z,36.90
2023-04-26T13:19:01.033Z,37.00
2023-04-26T13:20:34.433Z,36.90
2023-04-26T13:22:08.369Z,37.00
2023-04-26T13:23:41.471Z,36.90
2023-04-26T13:25:15.679Z,37.10
2023-04-26T13:26:49.027Z,37.10
2023-04-26T13:28:22.487Z,37.00
2023-04-26T13:29:56.999Z,36.80
2023-04-26T13:31:30.489Z,36.90
2023-04-26T13:33:04.910Z,37.20
2023-04-26T13:34:39.589Z,37.10
2023-04-26T13:36:12.717Z,37.10
2023-04-26T13:37:46.282Z,37.00
2023-04-26T13:39:19.872Z,37.00
2023-04-26T13:40:53.665Z,37.10
2023-04-26T13:42:27.141Z,36.90
2023-04-26T13:44:00.867Z,36.80
2023-04-26T13:45:36.597Z,36.50
2023-04-26T13:47:09.775Z,36.60
2023-04-26T13:48:42.919Z,36.60
2023-04-26T13:50:16.301Z,36.70
2023-04-26T13:51:49.775Z,36.20
2023-04-26T13:53:23.189Z,36.60
2023-04-26T13:54:56.532Z,36.60
2023-04-26T13:56:29.997Z,36.60
2023-04-26T13:58:03.133Z,36.60
2023-04-26T13:59:36.351Z,37.00
2023-04-26T14:01:11.455Z,37.70
2023-04-26T14:02:45.211Z,37.30
2023-04-26T14:04:18.690Z,37.20
2023-04-26T14:05:52.195Z,36.90
2023-04-26T14:07:25.547Z,36.70
2023-04-26T14:08:58.778Z,36.60
2023-04-26T14:10:31.928Z,36.60
2023-04-26T14:12:08.389Z,36.20
2023-04-26T14:13:42.320Z,36.00
2023-04-26T14:15:15.676Z,36.00
2023-04-26T14:16:50.165Z,35.80
2023-04-26T14:18:23.311Z,35.70
2023-04-26T14:19:57.525Z,35.70
2023-04-26T14:21:31.431Z,35.60
2023-04-26T14:23:04.565Z,35.60
2023-04-26T14:24:37.653Z,35.50
2023-04-26T14:26:11.064Z,35.40
2023-04-26T14:27:44.277Z,35.50
2023-04-26T14:29:17.672Z,35.60
2023-04-26T14:30:50.805Z,35.50
2023-04-26T14:32:26.129Z,35.40
2023-04-26T14:33:59.618Z,35.80
2023-04-26T14:35:33.094Z,35.90
2023-04-26T14:37:06.886Z,35.90
2023-04-26T14:38:43.410Z,35.90
2023-04-26T14:40:16.771Z,36.00
2023-04-26T14:41:49.886Z,36.10
2023-04-26T14:43:23.492Z,36.10
2023-04-26T14:44:59.396Z,36.10
2023-04-26T14:46:32.662Z,36.00
2023-04-26T14:48:07.904Z,36.50
2023-04-26T14:49:41.321Z,35.70
2023-04-26T14:51:14.463Z,35.90
2023-04-26T14:52:47.677Z,35.90
2023-04-26T14:54:20.978Z,35.90
2023-04-26T14:55:56.024Z,36.30
2023-04-26T14:57:29.812Z,36.40
2023-04-26T14:59:04.141Z,36.10
2023-04-26T15:00:39.103Z,35.80
2023-04-26T15:02:12.518Z,35.70
2023-04-26T15:03:47.252Z,35.60
2023-04-26T15:05:21.353Z,35.50
2023-04-26T15:06:54.552Z,35.40
2023-04-26T15:08:28.480Z,35.70
2023-04-26T15:10:02.201Z,35.30
2023-04-26T15:11:35.687Z,34.90
2023-04-26T15:13:08.868Z,34.90
2023-04-26T15:14:42.443Z,34.70
2023-04-26T15:16:16.773Z,34.80
2023-04-26T15:17:50.241Z,34.50
2023-04-26T15:19:24.923Z,34.30
2023-04-26T15:20:58.405Z,34.30
2023-04-26T15:22:34.171Z,34.00
2023-04-26T15:24:09.560Z,33.80
2023-04-26T15:25:42.707Z,33.90
2023-04-26T15:27:15.411Z,33.50
2023-04-26T15:28:48.593Z,33.80
2023-04-26T15:30:21.993Z,33.80
2023-04-26T15:31:54.331Z,33.90
2023-04-26T15:33:27.675Z,34.30
2023-04-26T15:35:02.470Z,34.20
2023-04-26T15:36:35.689Z,33.70
2023-04-26T15:38:08.828Z,33.60
2023-04-26T15:39:42.132Z,34.10
2023-04-26T15:41:15.304Z,34.10
2023-04-26T15:42:49.229Z,34.20
2023-04-26T15:44:22.403Z,34.10
2023-04-26T15:45:56.243Z,33.90
2023-04-26T15:47:29.425Z,33.90
2023-04-26T15:49:02.635Z,34.00
2023-04-26T15:50:38.847Z,34.00
2023-04-26T15:52:12.072Z,34.10
2023-04-26T15:53:45.294Z,34.20
2023-04-26T15:55:18.549Z,34.00
2023-04-26T15:56:51.858Z,33.80
2023-04-26T15:58:25.612Z,33.80
2023-04-26T15:59:59.296Z,33.60
2023-04-26T16:01:32.536Z,33.80
2023-04-26T16:03:05.991Z,34.00
2023-04-26T16:04:39.498Z,34.20
2023-04-26T16:06:14.344Z,34.20
2023-04-26T16:07:47.651Z,34.70
2023-04-26T16:09:25.491Z,34.00
2023-04-26T16:11:00.946Z,33.70
2023-04-26T16:12:33.999Z,33.60
2023-04-26T16:14:07.539Z,33.60
2023-04-26T16:15:41.460Z,34.00
2023-04-26T16:17:15.171Z,33.90
2023-04-26T16:18:48.363Z,33.80
2023-04-26T16:20:21.868Z,33.70
2023-04-26T16:21:56.549Z,33.60
2023-04-26T16:23:29.671Z,33.50
2023-04-26T16:25:04.612Z,33.60
2023-04-26T16:26:37.961Z,33.90
2023-04-26T16:28:11.965Z,34.20
2023-04-26T16:29:45.225Z,34.30
2023-04-26T16:31:18.698Z,34.40
2023-04-26T16:32:51.942Z,34.40
2023-04-26T16:34:26.685Z,34.00
2023-04-26T16:35:59.745Z,33.60
2023-04-26T16:37:34.566Z,33.50
2023-04-26T16:39:08.000Z,34.10
2023-04-26T16:40:41.313Z,34.00
2023-04-26T16:42:15.460Z,33.70
2023-04-26T16:43:48.648Z,34.00
2023-04-26T16:45:22.059Z,34.30
2023-04-26T16:46:55.808Z,35.00
2023-04-26T16:48:31.234Z,35.50
2023-04-26T16:50:05.302Z,35.40
2023-04-26T16:51:38.659Z,35.60
2023-04-26T16:53:12.119Z,35.80
2023-04-26T16:54:45.300Z,36.20
2023-04-26T16:56:18.750Z,36.50
2023-04-26T16:57:52.109Z,36.30
2023-04-26T16:59:25.398Z,36.40
2023-04-26T17:00:59.256Z,37.00
2023-04-26T17:02:32.479Z,36.40
2023-04-26T17:04:06.124Z,36.30
2023-04-26T17:05:40.657Z,35.80
2023-04-26T17:07:13.944Z,35.50
2023-04-26T17:08:48.428Z,35.60
2023-04-26T17:10:21.998Z,35.40
2023-04-26T17:11:55.128Z,35.10
2023-04-26T17:13:30.740Z,35.00
2023-04-26T17:15:04.818Z,35.00
2023-04-26T17:16:38.465Z,34.90
2023-04-26T17:18:12.065Z,34.80
2023-04-26T17:19:45.803Z,34.60
2023-04-26T17:21:18.905Z,34.60
2023-04-26T17:22:52.386Z,34.80
2023-04-26T17:24:26.935Z,35.00
2023-04-26T17:26:00.329Z,34.90
2023-04-26T17:27:32.636Z,34.90
2023-04-26T17:29:06.206Z,34.90
2023-04-26T17:30:39.369Z,35.00
2023-04-26T17:32:12.845Z,35.10
2023-04-26T17:33:46.534Z,35.10
2023-04-26T17:35:19.753Z,35.20
2023-04-26T17:36:53.173Z,35.50
2023-04-26T17:38:26.898Z,35.50
2023-04-26T17:40:01.686Z,35.50
2023-04-26T17:41:34.786Z,35.50
2023-04-26T17:43:08.052Z,35.50
2023-04-26T17:44:41.266Z,35.40
2023-04-26T17:46:14.715Z,35.20
2023-04-26T17:47:48.271Z,35.40
2023-04-26T17:49:22.034Z,35.70
2023-04-26T17:50:55.503Z,35.70
2023-04-26T17:52:28.966Z,36.00
2023-04-26T17:54:02.342Z,36.10
2023-04-26T17:55:37.932Z,36.20
2023-04-26T17:57:11.938Z,36.10
2023-04-26T17:58:45.305Z,36.10
2023-04-26T18:00:20.135Z,36.20
2023-04-26T18:01:53.591Z,36.10
2023-04-26T18:03:29.646Z,36.10
2023-04-26T18:05:03.516Z,36.40
2023-04-26T18:06:37.718Z,36.70
2023-04-26T18:08:11.304Z,36.70
2023-04-26T18:09:44.922Z,36.70
2023-04-26T18:11:21.108Z,36.30
2023-04-26T18:12:54.619Z,36.20
2023-04-26T18:14:28.290Z,36.60
2023-04-26T18:16:03.225Z,36.60
2023-04-26T18:17:36.577Z,36.90
2023-04-26T18:19:10.369Z,37.10
2023-04-26T18:20:43.727Z,37.20
2023-04-26T18:22:17.094Z,37.80
2023-04-26T18:23:50.489Z,38.30
2023-04-26T18:25:23.824Z,38.60
2023-04-26T18:26:58.472Z,38.90
2023-04-26T18:28:31.805Z,39.20
2023-04-26T18:30:07.743Z,39.40
2023-04-26T18:31:41.385Z,39.30
2023-04-26T18:33:15.011Z,39.20
2023-04-26T18:34:49.097Z,39.50
2023-04-26T18:36:23.595Z,39.50
2023-04-26T18:37:57.026Z,39.50
2023-04-26T18:39:30.359Z,39.50
2023-04-26T18:41:03.699Z,39.80
2023-04-26T18:42:38.845Z,40.00
2023-04-26T18:44:13.150Z,40.10
2023-04-26T18:45:46.510Z,40.20
2023-04-26T18:47:20.093Z,40.30
2023-04-26T18:48:53.580Z,40.40
2023-04-26T18:50:26.955Z,40.40
2023-04-26T18:52:01.437Z,40.40
2023-04-26T18:53:35.042Z,40.50
2023-04-26T18:55:09.228Z,40.60
2023-04-26T18:56:42.604Z,40.40
2023-04-26T18:58:17.492Z,40.60
2023-04-26T18:59:50.681Z,40.80
2023-04-26T19:01:24.249Z,41.10
2023-04-26T19:02:57.950Z,40.60
2023-04-26T19:04:31.596Z,40.80
2023-04-26T19:06:10.475Z,41.10
2023-04-26T19:07:44.892Z,41.60
2023-04-26T19:09:18.518Z,41.70
2023-04-26T19:10:52.034Z,41.60
2023-04-26T19:12:25.312Z,41.60
2023-04-26T19:13:59.984Z,41.60
2023-04-26T19:15:33.365Z,41.90
2023-04-26T19:17:07.644Z,41.90
2023-04-26T19:18:43.866Z,42.00
2023-04-26T19:20:17.213Z,42.30
2023-04-26T19:21:50.591Z,42.40
2023-04-26T19:23:23.872Z,42.60
2023-04-26T19:24:57.336Z,42.80
2023-04-26T19:26:30.595Z,42.60
2023-04-26T19:28:04.384Z,42.80
2023-04-26T19:29:39.042Z,42.80
2023-04-26T19:31:12.684Z,42.60
2023-04-26T19:32:46.251Z,42.60
2023-04-26T19:34:21.834Z,42.70
2023-04-26T19:36:01.751Z,42.80
2023-04-26T19:37:35.452Z,43.00
2023-04-26T19:39:08.773Z,42.70
2023-04-26T19:40:45.968Z,42.80
2023-04-26T19:42:19.352Z,42.90
2023-04-26T19:43:52.722Z,43.10
2023-04-26T19:45:36.164Z,43.30
2023-04-26T19:47:09.690Z,43.70
2023-04-26T19:48:43.199Z,43.80
2023-04-26T19:50:17.895Z,44.00
2023-04-26T19:51:51.546Z,44.80
2023-04-26T19:53:24.997Z,44.40
2023-04-26T19:54:58.308Z,44.50
2023-04-26T19:56:31.829Z,44.50
2023-04-26T19:58:05.519Z,44.60
2023-04-26T19:59:41.095Z,44.60
2023-04-26T20:01:17.568Z,44.60
2023-04-26T20:02:51.272Z,44.60
2023-04-26T20:04:24.992Z,44.70
2023-04-26T20:05:58.451Z,44.70
2023-04-26T20:07:31.856Z,44.70
2023-04-26T20:09:06.660Z,44.80
2023-04-26T20:10:41.560Z,44.80
2023-04-26T20:12:14.845Z,45.10
2023-04-26T20:13:48.369Z,44.80
2023-04-26T20:15:21.654Z,44.80
2023-04-26T20:17:09.868Z,44.90
2023-04-26T20:18:43.488Z,45.20
2023-04-26T20:20:17.160Z,45.10
2023-04-26T20:21:50.676Z,45.00